Flight Track Log - Related Links

Times and Time Zones

All times are in EDT time to prevent confusion due to time zone crossing. See the CSH9272 flight status page for this flight to view local times or setup timezone preferences in your user account.

Time Position Orientation Groundspeed Altitude Reporting Facility
EDT Latitude Longitude Course Direction KTS MPH feet Rate Location/Type
05:11AM 25.0944 118.3777 22° Northeast  Level Estimated
05:12AM 25.1730 118.4136 22° Northeast  Level Estimated
05:13AM 25.2516 118.4496 22° Northeast  Level Estimated
05:14AM 25.3302 118.4856 22° Northeast  Level Estimated
05:15AM 25.4087 118.5216 23° Northeast  Level Estimated
05:16AM 25.4873 118.5577 23° Northeast  Level Estimated
05:17AM 25.5658 118.5938 23° Northeast  Level Estimated
05:18AM 25.6444 118.6300 23° Northeast  Level Estimated
05:19AM 25.7229 118.6662 23° Northeast  Level Estimated
05:20AM 25.8023 118.7029 23° Northeast  Level Estimated
05:21AM 25.8818 118.7397 23° Northeast  Level Estimated
05:22AM 25.9612 118.7765 23° Northeast  Level Estimated
05:23AM 26.0407 118.8133 23° Northeast  Level Estimated
05:24AM 26.1201 118.8503 23° Northeast  Level Estimated
05:25AM 26.1995 118.8872 23° Northeast  Level Estimated
05:26AM 26.2789 118.9242 23° Northeast  Level Estimated
05:27AM 26.3583 118.9613 23° Northeast  Level Estimated
05:28AM 26.4377 118.9984 23° Northeast  Level Estimated
05:29AM 26.5170 119.0355 23° Northeast  Level Estimated
05:30AM 26.5964 119.0727 23° Northeast  Level Estimated
05:31AM 26.6757 119.1100 23° Northeast  Level Estimated
05:32AM 26.7551 119.1473 23° Northeast  Level Estimated
05:33AM 26.8344 119.1847 23° Northeast  Level Estimated
05:34AM 26.9137 119.2221 23° Northeast  Level Estimated
05:35AM 26.9930 119.2596 23° Northeast  Level Estimated
05:36AM 27.0723 119.2971 23° Northeast  Level Estimated
05:37AM 27.1516 119.3347 23° Northeast  Level Estimated
05:38AM 27.2309 119.3723 23° Northeast  Level Estimated
05:39AM 27.3102 119.4100 23° Northeast  Level Estimated
05:40AM 27.3895 119.4477 23° Northeast  Level Estimated
05:41AM 27.4687 119.4855 23° Northeast  Level Estimated
05:42AM 27.5480 119.5234 23° Northeast  Level Estimated
05:43AM 27.6272 119.5612 23° Northeast  Level Estimated
05:44AM 27.7064 119.5992 23° Northeast  Level Estimated
05:45AM 27.7856 119.6372 23° Northeast  Level Estimated
05:46AM 27.8648 119.6753 23° Northeast  Level Estimated
05:47AM 27.9440 119.7134 23° Northeast  Level Estimated
05:48AM 28.0232 119.7516 23° Northeast  Level Estimated
05:49AM 28.1024 119.7898 23° Northeast  Level Estimated
05:50AM 28.1815 119.8281 23° Northeast  Level Estimated
05:51AM 28.2607 119.8664 23° Northeast  Level Estimated
05:52AM 28.3398 119.9048 23° Northeast  Level Estimated
05:53AM 28.4189 119.9433 23° Northeast  Level Estimated
05:54AM 28.4980 119.9818 23° Northeast  Level Estimated
05:55AM 28.5771 120.0204 23° Northeast  Level Estimated
05:56AM 28.6562 120.0590 23° Northeast  Level Estimated
05:57AM 28.7353 120.0977 23° Northeast  Level Estimated
05:58AM 28.8144 120.1365 23° Northeast  Level Estimated
05:59AM 28.8934 120.1753 23° Northeast  Level Estimated
06:00AM 28.9725 120.2142 23° Northeast  Level Estimated
06:01AM 29.0515 120.2531 23° Northeast  Level Estimated
06:02AM 29.1306 120.2921 23° Northeast  Level Estimated
06:03AM 29.2096 120.3311 23° Northeast  Level Estimated
06:04AM 29.2886 120.3702 23° Northeast  Level Estimated
06:05AM 29.3676 120.4094 23° Northeast  Level Estimated
06:06AM 29.4465 120.4486 23° Northeast  Level Estimated
06:07AM 29.5255 120.4879 23° Northeast  Level Estimated
06:08AM 29.6045 120.5273 23° Northeast  Level Estimated
06:09AM 29.6834 120.5667 23° Northeast  Level Estimated
06:10AM 29.7624 120.6062 23° Northeast  Level Estimated
06:11AM 29.8413 120.6457 23° Northeast  Level Estimated
06:12AM 29.9202 120.6853 24° Northeast  Level Estimated
06:13AM 29.9991 120.7250 24° Northeast  Level Estimated
06:14AM 30.0780 120.7647 24° Northeast  Level Estimated
06:15AM 30.1569 120.8045 24° Northeast  Level Estimated
06:16AM 30.2357 120.8443 24° Northeast  Level Estimated
06:17AM 30.3146 120.8842 24° Northeast  Level Estimated
06:18AM 30.3934 120.9242 24° Northeast  Level Estimated
06:19AM 30.4722 120.9643 24° Northeast  Level Estimated
06:20AM 30.5510 121.0044 24° Northeast  Level Estimated
06:21AM 30.6298 121.0446 24° Northeast  Level Estimated
06:22AM 30.7086 121.0848 24° Northeast  Level Estimated
06:23AM 30.7874 121.1251 24° Northeast  Level Estimated
06:24AM 30.8733 121.1692 24° Northeast  Level Estimated
06:25AM 30.9592 121.2133 24° Northeast  Level Estimated
06:26AM 31.0451 121.2575 24° Northeast  Level Estimated

Login

Don't have an account? Register now (free) for customized features, flight alerts, and more!